• Join FlightAware (Why Join?)
  • Login
  • US Flag 
09:48AM EDT


 

Airport Tracker/Info


-or-


 

Live Flight TrackerFlight Track Log ✈ N276CP ✈ 21-Jul-2013 ✈ KCRG - KPDK

Flight Track Log - Related Links

Times and Time Zones

All times are in EDT time to prevent confusion due to time zone crossing. See the N276CP flight status page for this flight to view local times or setup timezone preferences in your user account.

Time Position Orientation Groundspeed Altitude Reporting Facility
EDT Latitude Longitude Course Direction KTS MPH feet Rate Location/Type
09:38AM 30.3239 -81.5281 277° West 74 85 500  Level Jacksonville Center
09:39AM 30.3264 -81.5522 277° West 93 107 1,300 660 Climbing Jacksonville Center
09:40AM 30.3308 -81.5881 278° West 122 140 1,800 600 Climbing Jacksonville Center
09:41AM 30.3311 -81.6267 270° West 124 143 2,600 780 Climbing Jacksonville Center
09:42AM 30.3336 -81.6650 274° West 121 139 3,400 780 Climbing Jacksonville Center
09:43AM 30.3486 -81.6961 299° West 148 170 4,200 780 Climbing Jacksonville Center
09:44AM 30.3864 -81.7150 337° Northwest 132 152 5,000 780 Climbing Jacksonville Center
09:45AM 30.4219 -81.7314 338° Northwest 135 155 5,800 780 Climbing Jacksonville Center
09:46AM 30.4556 -81.7528 331° Northwest 139 160 6,600 660 Climbing Jacksonville Center
09:47AM 30.4872 -81.7742 330° Northwest 134 154 7,200 600 Climbing Jacksonville Center
09:48AM 30.5186 -81.8003 324° Northwest 135 155 7,900 660 Climbing Jacksonville Center
09:49AM 30.5544 -81.8239 330° Northwest 140 161 8,600 540 Climbing Jacksonville Center
09:50AM 30.5881 -81.8478 329° Northwest 144 166 9,000 180 Climbing Jacksonville Center
09:51AM 30.6300 -81.8761 330° Northwest 164 189 9,000  Level Jacksonville Center
09:52AM 30.6656 -81.9047 325° Northwest 158 182 9,000  Level Jacksonville Center
09:53AM 30.7014 -81.9333 326° Northwest 156 180 9,000  Level Jacksonville Center
09:54AM 30.7392 -81.9572 331° Northwest 154 177 9,000  Level Jacksonville Center
09:55AM 30.7769 -81.9833 329° Northwest 153 176 9,000  Level Jacksonville Center
09:56AM 30.8167 -82.0097 330° Northwest 160 184 9,000  Level Jacksonville Center
09:57AM 30.8442 -82.0336 323° Northwest 160 184 9,000  Level Jacksonville Center
09:58AM 30.8775 -82.0575 328° Northwest 160 184 9,000  Level Jacksonville Center
09:59AM 30.9133 -82.0839 328° Northwest 160 184 9,000  Level Jacksonville Center
10:00AM 30.9489 -82.1100 328° Northwest 165 190 9,000  Level Jacksonville Center
10:01AM 30.9867 -82.1342 331° Northwest 165 190 9,100  Climbing Jacksonville Center
10:02AM 31.0222 -82.1606 328° Northwest 165 190 9,100  Level Jacksonville Center
10:03AM 31.0581 -82.1869 328° Northwest 160 184 9,100  Level Jacksonville Center
10:04AM 31.0936 -82.2133 328° Northwest 155 178 9,100  Level Jacksonville Center
10:05AM 31.1272 -82.2397 326° Northwest 150 173 9,100  Level Jacksonville Center
10:06AM 31.1650 -82.2661 329° Northwest 150 173 9,100  Level Jacksonville Center
10:07AM 31.2047 -82.2950 328° Northwest 150 173 9,100  Level Jacksonville Center
10:08AM 31.2319 -82.3144 329° Northwest 150 173 9,100  Level Jacksonville Center
10:09AM 31.2758 -82.3481 327° Northwest 150 173 9,100  Level Jacksonville Center
10:10AM 31.3114 -82.3722 330° Northwest 150 173 9,100  Level Jacksonville Center
10:11AM 31.3492 -82.3986 329° Northwest 150 173 9,100  Level Jacksonville Center
10:12AM 31.3889 -82.4228 333° Northwest 150 173 9,100  Level Jacksonville Center
10:13AM 31.4267 -82.4494 329° Northwest 150 173 9,100  Level Jacksonville Center
10:14AM 31.4603 -82.4786 323° Northwest 150 173 9,100  Level Jacksonville Center
10:15AM 31.4936 -82.5053 326° Northwest 150 173 9,100  Level Jacksonville Center
10:16AM 31.5314 -82.5319 329° Northwest 150 173 9,100  Level Jacksonville Center
10:17AM 31.5711 -82.5586 330° Northwest 150 173 9,100  Level Jacksonville Center
10:18AM 31.6086 -82.5878 326° Northwest 150 173 9,100  Level Jacksonville Center
10:19AM 31.6483 -82.6144 330° Northwest 155 178 9,100  Level Jacksonville Center
10:20AM 31.6861 -82.6436 327° Northwest 155 178 9,100  Level Jacksonville Center
10:21AM 31.7236 -82.6728 327° Northwest 155 178 9,100  Level Jacksonville Center
10:22AM 31.7614 -82.6994 329° Northwest 155 178 9,100  Level Jacksonville Center
10:23AM 31.7989 -82.7264 329° Northwest 155 178 9,100  Level Jacksonville Center
10:24AM 31.8386 -82.7556 328° Northwest 155 178 9,100 -240 Level Jacksonville Center
10:25AM 31.8742 -82.7850 325° Northwest 161 185 8,700 -480 Descending Jacksonville Center
10:26AM 31.9161 -82.8142 329° Northwest 166 191 8,200 -300 Descending Jacksonville Center
10:27AM 31.9556 -82.8436 328° Northwest 166 191 8,100 -60 Descending Jacksonville Center
10:29AM 32.0500 -82.9167 327° Northwest 161 185 8,000 -60 Descending Atlanta TRACON
10:30AM 32.0833 -82.9333 337° Northwest 161 185 8,000  Level Atlanta TRACON
10:31AM 32.1167 -82.9667 320° Northwest 159 183 8,000  Level Atlanta TRACON
10:32AM 32.1500 -82.9833 337° Northwest 161 185 8,000  Level Atlanta TRACON
10:33AM 32.1833 -83.0167 320° Northwest 158 182 8,000  Level Atlanta TRACON
10:34AM 32.2333 -83.0500 331° Northwest 158 182 8,000  Level Atlanta TRACON
10:35AM 32.2667 -83.0833 320° Northwest 160 184 8,000  Level Atlanta TRACON
10:36AM 32.3167 -83.1000 344° North 160 184 8,000  Level Atlanta TRACON
10:37AM 32.3500 -83.1333 320° Northwest 160 184 8,000  Level Atlanta TRACON
10:38AM 32.3833 -83.1667 320° Northwest 161 185 8,000 -120 Level Atlanta TRACON
10:39AM 32.4333 -83.1833 344° North 169 194 7,800 -360 Descending Atlanta TRACON
10:40AM 32.4667 -83.2000 337° Northwest 179 206 7,300 -540 Descending Atlanta TRACON
10:41AM 32.5167 -83.2333 331° Northwest 183 211 6,800 -540 Descending Atlanta TRACON
10:42AM 32.5667 -83.2500 344° North 180 207 6,300 -480 Descending Atlanta TRACON
10:43AM 32.6000 -83.2667 337° Northwest 178 205 6,000 -180 Descending Atlanta TRACON
10:44AM 32.6500 -83.3000 331° Northwest 163 188 6,000  Level Atlanta TRACON
10:45AM 32.7000 -83.3167 344° North 163 188 6,000  Level Atlanta TRACON
10:46AM 32.7333 -83.3333 337° Northwest 160 184 6,000  Level Atlanta TRACON
10:47AM 32.7833 -83.3500 344° North 162 186 6,000  Level Atlanta TRACON
10:48AM 32.8167 -83.3833 320° Northwest 164 189 6,000  Level Atlanta TRACON
10:49AM 32.8667 -83.4000 344° North 163 188 6,000  Level Atlanta TRACON
10:50AM 32.9000 -83.4167 337° Northwest 165 190 6,000  Level Atlanta TRACON
10:51AM 32.9500 -83.4333 344° North 162 186 6,000  Level Atlanta TRACON
10:52AM 32.9833 -83.4667 320° Northwest 161 185 6,000  Level Atlanta TRACON
10:53AM 33.0333 -83.4833 344° North 162 186 6,000  Level Atlanta TRACON
10:54AM 33.0667 -83.5000 337° Northwest 163 188 6,000  Level Atlanta TRACON
10:55AM 33.1167 -83.5167 344° North 166 191 6,000  Level Atlanta TRACON
10:57AM 33.2000 -83.5667 333° Northwest 173 199 6,000  Level Atlanta TRACON
10:58AM 33.2500 -83.6000 331° Northwest 166 191 6,000  Level Atlanta TRACON
10:59AM 33.2833 -83.6167 337° Northwest 167 192 6,000  Level Atlanta TRACON
11:00AM 33.3333 -83.6333 344° North 169 194 6,000  Level Atlanta TRACON
11:01AM 33.3667 -83.6500 337° Northwest 174 200 6,000  Level Atlanta TRACON
11:02AM 33.4167 -83.6833 331° Northwest 160 184 6,000 -240 Level Atlanta TRACON
11:03AM 33.4500 -83.7167 320° Northwest 175 201 5,600 -540 Descending Atlanta TRACON
11:04AM 33.5000 -83.7333 344° North 182 209 5,000 -600 Descending Atlanta TRACON
11:05AM 33.5500 -83.7667 331° Northwest 181 208 4,400 -540 Descending Atlanta TRACON
11:06AM 33.6000 -83.7833 344° North 178 205 4,000 -240 Descending Atlanta TRACON
11:07AM 33.6333 -83.8000 337° Northwest 171 197 4,000  Level Atlanta TRACON
11:08AM 33.6833 -83.8333 331° Northwest 167 192 4,000  Level Atlanta TRACON
11:09AM 33.7167 -83.8500 337° Northwest 159 183 4,000  Level Atlanta TRACON
11:10AM 33.7500 -83.8667 337° Northwest 158 182 4,000  Level Atlanta TRACON
11:11AM 33.8000 -83.8833 345° North 160 184 4,000  Level Atlanta TRACON
11:12AM 33.8333 -83.9167 320° Northwest 155 178 4,000  Level Atlanta TRACON
11:13AM 33.8833 -83.9333 345° North 155 178 4,000  Level Atlanta TRACON
11:14AM 33.9167 -83.9500 337° Northwest 153 176 4,000  Level Atlanta TRACON
11:15AM 33.9500 -83.9667 337° Northwest 145 167 4,000  Level Atlanta TRACON
11:16AM 33.9833 -84.0000 320° Northwest 152 175 4,000  Level Atlanta TRACON
11:17AM 34.0167 -84.0333 320° Northwest 142 163 4,000  Level Atlanta TRACON
11:18AM 34.0333 -84.0667 301° West 142 163 4,000  Level Atlanta TRACON
11:19AM 34.0500 -84.1167 292° West 145 167 4,000 -300 Level Atlanta TRACON
11:20AM 34.0667 -84.1500 301° West 171 197 3,500 -540 Descending Atlanta TRACON
11:21AM 34.0500 -84.2000 248° West 146 168 3,000 -300 Descending Atlanta TRACON
11:22AM 34.0167 -84.2333 220° Southwest 131 151 3,000  Level Atlanta TRACON
11:23AM 33.9833 -84.2500 203° Southwest 129 148 3,000 -300 Level Atlanta TRACON
11:24AM 33.9500 -84.2667 203° Southwest 131 151 2,500 -600 Descending Atlanta TRACON
11:25AM 33.9333 -84.2833 220° Southwest 112 129 1,900 -600 Descending Atlanta TRACON
11:26AM 33.9000 -84.2833 180° South 90 104 1,400 -540 Descending Atlanta TRACON
11:28AM 33.8667 -84.3000 230° Southwest  Level FlightAware Approximate
11:35AM 33.8756 -84.3020 230° Southwest  Level Estimated